createdAt,value
2022-12-20T00:01:05.930Z,45.13
2022-12-20T00:02:11.553Z,47.81
2022-12-20T00:04:24.274Z,40.13
2022-12-20T00:07:25.701Z,47.06
2022-12-20T00:08:32.844Z,49.67
2022-12-20T00:09:36.879Z,47.50
2022-12-20T00:10:46.625Z,48.75
2022-12-20T00:11:50.580Z,48.38
2022-12-20T00:12:56.481Z,43.69
2022-12-20T00:14:03.388Z,46.53
2022-12-20T00:15:11.331Z,44.75
2022-12-20T00:16:20.080Z,46.75
2022-12-20T00:19:48.156Z,41.27
2022-12-20T00:20:07.192Z,44.38
2022-12-20T00:21:13.203Z,42.40
2022-12-20T00:22:51.432Z,38.20
2022-12-20T00:23:27.761Z,41.13
2022-12-20T00:24:31.838Z,42.75
2022-12-20T00:25:35.865Z,41.13
2022-12-20T00:26:39.998Z,41.00
2022-12-20T00:27:43.985Z,37.88
2022-12-20T00:28:49.506Z,40.67
2022-12-20T00:29:53.405Z,35.25
2022-12-20T00:30:57.576Z,42.69
2022-12-20T00:32:03.368Z,45.25
2022-12-20T00:33:08.925Z,44.07
2022-12-20T00:34:14.147Z,43.13
2022-12-20T00:35:18.372Z,34.27
2022-12-20T00:36:24.585Z,39.69
2022-12-20T00:37:31.037Z,39.20
2022-12-20T00:38:37.157Z,40.12
2022-12-20T00:39:42.655Z,33.31
2022-12-20T00:40:51.304Z,42.38
2022-12-20T00:41:53.926Z,40.07
2022-12-20T00:42:57.873Z,41.67
2022-12-20T00:44:02.329Z,48.75
2022-12-20T00:45:09.045Z,46.40
2022-12-20T00:46:25.711Z,45.00
2022-12-20T01:13:03.445Z,37.75
2022-12-20T01:14:11.691Z,42.62
2022-12-20T01:15:57.893Z,40.00
2022-12-20T01:16:48.098Z,39.63
2022-12-20T01:33:55.081Z,34.81
2022-12-20T01:34:59.084Z,37.75
2022-12-20T01:36:06.362Z,40.73
2022-12-20T01:37:10.374Z,36.81
2022-12-20T01:38:17.291Z,40.73
2022-12-20T01:39:22.821Z,35.27
2022-12-20T01:40:28.417Z,44.50
2022-12-20T01:41:34.680Z,46.37
2022-12-20T01:46:53.789Z,34.81
2022-12-20T01:48:00.688Z,42.25
2022-12-20T01:49:22.151Z,42.31
2022-12-20T03:32:55.113Z,24.06
2022-12-20T03:34:02.095Z,20.50
2022-12-20T03:35:06.504Z,26.37
2022-12-20T03:36:12.065Z,27.75
2022-12-20T03:37:18.520Z,23.19
2022-12-20T03:38:22.362Z,25.31
2022-12-20T03:39:26.304Z,18.12
2022-12-20T03:40:30.227Z,26.69
2022-12-20T03:41:37.577Z,21.87
2022-12-20T03:42:41.871Z,20.31
2022-12-20T03:43:47.838Z,21.75
2022-12-20T03:44:57.501Z,26.31
2022-12-20T03:46:01.541Z,23.27
2022-12-20T03:47:05.471Z,26.06
2022-12-20T03:48:09.389Z,24.06
2022-12-20T03:49:13.301Z,29.19
2022-12-20T03:50:17.507Z,26.00
2022-12-20T03:51:23.869Z,27.81
2022-12-20T03:52:27.775Z,28.50
2022-12-20T03:53:40.672Z,26.19
2022-12-20T03:54:46.027Z,29.69
2022-12-20T03:55:56.838Z,30.44
2022-12-20T03:56:55.663Z,28.75
2022-12-20T03:57:59.589Z,25.19
2022-12-20T03:59:05.207Z,22.62
2022-12-20T04:00:20.950Z,25.37
2022-12-20T04:01:28.708Z,29.13
2022-12-20T04:02:34.572Z,27.00
2022-12-20T04:03:51.222Z,26.44
2022-12-20T04:04:51.711Z,23.12
2022-12-20T04:05:55.642Z,21.62
2022-12-20T04:07:01.209Z,25.25
2022-12-20T04:08:08.927Z,21.81
2022-12-20T04:09:12.853Z,20.88
2022-12-20T04:10:16.993Z,24.37
2022-12-20T04:11:21.180Z,25.12
2022-12-20T04:12:26.496Z,24.69
2022-12-20T04:13:30.458Z,15.38
2022-12-20T04:14:34.433Z,28.50
2022-12-20T04:15:38.474Z,22.00
2022-12-20T04:16:42.559Z,22.07
2022-12-20T04:17:46.698Z,28.00
2022-12-20T04:18:52.612Z,22.62
2022-12-20T04:19:56.615Z,24.81
2022-12-20T04:21:06.141Z,22.06
2022-12-20T04:22:10.159Z,24.19
2022-12-20T04:23:14.078Z,25.19
2022-12-20T04:24:18.187Z,21.25
2022-12-20T04:25:22.294Z,26.81
2022-12-20T04:26:26.845Z,22.19
2022-12-20T04:27:32.453Z,22.56
2022-12-20T04:28:39.038Z,21.00
2022-12-20T04:29:42.929Z,22.80
2022-12-20T04:30:46.880Z,16.31
2022-12-20T04:31:50.898Z,23.00
2022-12-20T04:32:54.917Z,23.06
2022-12-20T04:33:58.981Z,24.00
2022-12-20T04:35:06.507Z,25.31
2022-12-20T04:36:10.740Z,21.75
2022-12-20T04:37:14.766Z,25.31
2022-12-20T04:38:21.514Z,19.44
2022-12-20T04:39:28.124Z,23.06
2022-12-20T04:40:33.694Z,24.44
2022-12-20T04:41:40.066Z,22.06
2022-12-20T04:42:44.052Z,26.37
2022-12-20T04:43:52.162Z,25.12
2022-12-20T04:44:56.234Z,22.69
2022-12-20T04:46:03.873Z,28.31
2022-12-20T04:47:09.148Z,26.69
2022-12-20T04:48:45.962Z,21.62
2022-12-20T04:52:17.731Z,23.38
2022-12-20T04:53:21.891Z,22.75
2022-12-20T04:54:30.019Z,24.69
2022-12-20T04:55:39.500Z,20.94
2022-12-20T04:56:45.074Z,23.75
2022-12-20T04:57:48.981Z,21.00
2022-12-20T04:58:54.773Z,22.87
2022-12-20T04:59:58.811Z,22.56
2022-12-20T05:01:02.831Z,24.00
2022-12-20T05:02:07.113Z,25.75
2022-12-20T05:03:11.338Z,22.81
2022-12-20T05:04:15.489Z,21.37
2022-12-20T05:05:19.500Z,21.12
2022-12-20T05:06:27.278Z,20.00
2022-12-20T05:07:31.280Z,20.19
2022-12-20T05:08:35.405Z,21.81
2022-12-20T05:09:41.012Z,23.00
2022-12-20T05:10:47.418Z,20.19
2022-12-20T05:11:51.535Z,20.12
2022-12-20T05:12:55.595Z,24.50
2022-12-20T05:13:59.538Z,26.44
2022-12-20T05:15:03.738Z,22.13
2022-12-20T05:16:09.540Z,27.93
2022-12-20T05:17:13.590Z,24.81
2022-12-20T05:18:26.277Z,26.44
2022-12-20T05:50:19.619Z,25.81
2022-12-20T05:51:26.516Z,22.69
2022-12-20T05:52:29.253Z,23.31
2022-12-20T05:53:37.836Z,12.56
2022-12-20T05:54:44.536Z,15.81
2022-12-20T05:55:52.328Z,20.62
2022-12-20T05:56:56.396Z,16.75
2022-12-20T05:58:01.999Z,15.50
2022-12-20T05:59:07.571Z,18.37
2022-12-20T06:00:14.064Z,21.19
2022-12-20T06:01:23.638Z,19.12
2022-12-20T06:03:42.594Z,16.69
2022-12-20T06:04:49.549Z,17.44
2022-12-20T06:05:50.922Z,19.31
2022-12-20T06:05:58.026Z,15.19
2022-12-20T06:07:08.193Z,19.94
2022-12-20T06:08:17.343Z,21.47
2022-12-20T06:09:24.557Z,15.31
2022-12-20T06:10:25.284Z,19.87
2022-12-20T06:11:30.970Z,19.87
2022-12-20T06:12:36.169Z,18.44
2022-12-20T06:13:40.187Z,21.00
2022-12-20T06:14:44.329Z,16.69
2022-12-20T06:15:54.924Z,15.56
2022-12-20T06:17:00.627Z,16.75
2022-12-20T06:18:08.706Z,16.00
2022-12-20T06:20:23.001Z,21.69
2022-12-20T06:20:53.255Z,17.19
2022-12-20T06:21:29.407Z,21.19
2022-12-20T06:25:42.035Z,22.75
2022-12-20T06:29:35.813Z,22.75
2022-12-20T06:30:41.391Z,16.56
2022-12-20T06:31:45.665Z,16.50
2022-12-20T06:33:04.993Z,15.75
2022-12-20T06:34:15.553Z,17.50
2022-12-20T06:35:19.026Z,25.62
2022-12-20T06:36:25.957Z,23.27
2022-12-20T06:37:34.302Z,12.75
2022-12-20T07:38:38.362Z,12.31
2022-12-20T07:39:45.513Z,14.56
2022-12-20T07:40:50.995Z,16.44
2022-12-20T07:41:56.623Z,13.62
2022-12-20T07:43:00.844Z,15.50
2022-12-20T07:46:31.301Z,9.94
2022-12-20T07:46:51.072Z,15.69
2022-12-20T07:48:24.846Z,10.69
2022-12-20T07:49:10.173Z,16.69
2022-12-20T07:51:15.858Z,12.44
2022-12-20T07:52:54.782Z,10.94
2022-12-20T08:37:49.358Z,15.25
2022-12-20T08:42:47.533Z,20.94
2022-12-20T08:43:51.519Z,17.62
2022-12-20T08:44:58.595Z,13.50
2022-12-20T08:51:01.893Z,21.31
2022-12-20T08:52:05.983Z,14.13
2022-12-20T08:53:11.302Z,16.56
2022-12-20T08:54:15.383Z,16.75
2022-12-20T08:55:29.519Z,15.38
2022-12-20T08:56:47.915Z,15.50
2022-12-20T08:59:35.104Z,13.94
2022-12-20T09:57:48.239Z,14.13
2022-12-20T09:59:17.136Z,17.60
2022-12-20T10:18:09.973Z,12.69
2022-12-20T10:18:47.071Z,17.50
2022-12-20T10:20:00.937Z,16.62
2022-12-20T10:21:36.113Z,13.06
2022-12-20T10:22:34.138Z,13.00
2022-12-20T10:37:27.156Z,13.62
2022-12-20T10:39:39.482Z,10.13
2022-12-20T10:42:49.042Z,17.00
2022-12-20T10:46:11.551Z,16.37
2022-12-20T10:47:25.921Z,17.06
2022-12-20T10:48:38.060Z,12.94
2022-12-20T11:31:30.890Z,19.06
2022-12-20T11:43:29.683Z,15.69
2022-12-20T12:13:48.611Z,26.69
2022-12-20T12:15:25.499Z,20.00
2022-12-20T12:16:41.368Z,18.25
2022-12-20T12:17:50.779Z,15.56
2022-12-20T12:18:55.013Z,18.87
2022-12-20T12:20:04.431Z,12.44
2022-12-20T12:21:23.351Z,17.06
2022-12-20T12:22:31.903Z,16.69
2022-12-20T12:23:58.275Z,16.25
2022-12-20T12:25:08.930Z,17.25
2022-12-20T12:26:30.707Z,15.38
2022-12-20T12:27:37.602Z,13.94
2022-12-20T12:28:43.208Z,21.40
2022-12-20T12:29:47.327Z,15.69
2022-12-20T12:31:07.664Z,9.56
2022-12-20T12:32:21.945Z,16.31
2022-12-20T12:33:38.594Z,17.81
2022-12-20T12:35:09.179Z,15.94
2022-12-20T12:36:17.776Z,20.81
2022-12-20T12:37:33.494Z,20.37
2022-12-20T12:38:48.094Z,15.69
2022-12-20T12:39:59.292Z,15.81
2022-12-20T12:41:44.691Z,17.44
2022-12-20T12:42:44.853Z,21.87
2022-12-20T12:43:59.441Z,13.88
2022-12-20T12:45:12.234Z,17.75
2022-12-20T13:08:54.298Z,13.94
2022-12-20T13:10:05.443Z,17.06
2022-12-20T13:22:45.727Z,19.44
2022-12-20T13:24:01.370Z,18.87
2022-12-20T13:31:29.660Z,19.44
2022-12-20T14:11:01.475Z,22.37
2022-12-20T14:12:25.506Z,21.19
2022-12-20T14:13:26.765Z,21.25
2022-12-20T14:14:32.198Z,19.25
2022-12-20T14:15:38.504Z,14.69
2022-12-20T14:16:43.880Z,17.12
2022-12-20T14:46:25.585Z,20.75
2022-12-20T14:47:29.370Z,19.94
2022-12-20T15:54:43.017Z,21.44
2022-12-20T15:55:45.499Z,25.75
2022-12-20T16:09:37.078Z,17.31
2022-12-20T16:11:34.259Z,25.12
2022-12-20T16:14:00.409Z,22.19
2022-12-20T16:41:38.772Z,23.27
2022-12-20T18:02:15.116Z,31.94
2022-12-20T18:04:02.311Z,30.25
2022-12-20T18:37:05.104Z,31.44
2022-12-20T19:08:13.713Z,35.94
2022-12-20T19:19:39.557Z,34.81
2022-12-20T19:25:07.246Z,34.53
2022-12-20T19:32:02.561Z,29.37
2022-12-20T23:22:26.613Z,28.81
2022-12-20T23:26:24.111Z,32.31
2022-12-20T23:27:28.056Z,27.56
2022-12-20T23:28:35.163Z,23.44
2022-12-20T23:29:41.500Z,26.12
2022-12-20T23:30:54.434Z,28.25
2022-12-20T23:32:04.104Z,31.87
2022-12-20T23:36:01.193Z,30.75
2022-12-20T23:37:08.358Z,30.06
2022-12-20T23:38:12.409Z,30.56
2022-12-20T23:39:16.418Z,28.69
2022-12-20T23:40:22.421Z,30.25
2022-12-20T23:41:27.572Z,30.31
2022-12-20T23:42:31.638Z,21.31
2022-12-20T23:43:37.850Z,24.25
2022-12-20T23:44:46.631Z,29.50
2022-12-20T23:46:03.299Z,32.31
2022-12-20T23:47:24.282Z,27.62
2022-12-20T23:48:07.149Z,29.00
2022-12-20T23:49:11.236Z,37.19
2022-12-20T23:50:16.869Z,23.62
2022-12-20T23:51:22.455Z,31.44
2022-12-20T23:52:29.373Z,22.75
2022-12-20T23:53:35.851Z,28.06
2022-12-20T23:54:39.584Z,30.56
2022-12-20T23:55:44.902Z,26.94
2022-12-20T23:56:54.107Z,29.75
2022-12-20T23:57:58.126Z,29.67
2022-12-20T23:59:02.385Z,30.19
